sensor_id;sensor_type;location;lat;lon;timestamp;P1;durP1;ratioP1;P2;durP2;ratioP2
3309;SDS011;1667;53.238;10.394;2023-07-31T00:01:01;1.90;;;1.10;;
3309;SDS011;1667;53.238;10.394;2023-07-31T00:06:00;1.67;;;1.23;;
3309;SDS011;1667;53.238;10.394;2023-07-31T00:16:23;1.33;;;1.10;;
3309;SDS011;1667;53.238;10.394;2023-07-31T00:21:22;1.30;;;1.20;;
3309;SDS011;1667;53.238;10.394;2023-07-31T00:26:21;2.00;;;1.03;;
3309;SDS011;1667;53.238;10.394;2023-07-31T00:31:20;1.33;;;1.20;;
3309;SDS011;1667;53.238;10.394;2023-07-31T00:36:19;1.53;;;1.17;;
3309;SDS011;1667;53.238;10.394;2023-07-31T00:41:18;5.00;;;1.60;;
3309;SDS011;1667;53.238;10.394;2023-07-31T00:46:17;2.37;;;1.10;;
3309;SDS011;1667;53.238;10.394;2023-07-31T00:51:16;3.77;;;1.17;;
3309;SDS011;1667;53.238;10.394;2023-07-31T00:56:16;1.60;;;1.10;;
3309;SDS011;1667;53.238;10.394;2023-07-31T01:07:49;2.63;;;1.70;;
3309;SDS011;1667;53.238;10.394;2023-07-31T01:12:53;2.10;;;1.63;;
3309;SDS011;1667;53.238;10.394;2023-07-31T01:17:54;1.40;;;1.30;;
3309;SDS011;1667;53.238;10.394;2023-07-31T01:22:58;1.80;;;1.70;;
3309;SDS011;1667;53.238;10.394;2023-07-31T01:28:36;1.87;;;1.67;;
3309;SDS011;1667;53.238;10.394;2023-07-31T01:33:45;1.97;;;1.20;;
3309;SDS011;1667;53.238;10.394;2023-07-31T01:38:43;4.80;;;1.83;;
3309;SDS011;1667;53.238;10.394;2023-07-31T01:43:43;3.87;;;1.63;;
3309;SDS011;1667;53.238;10.394;2023-07-31T01:48:41;2.43;;;1.53;;
3309;SDS011;1667;53.238;10.394;2023-07-31T01:53:40;2.93;;;1.27;;
3309;SDS011;1667;53.238;10.394;2023-07-31T01:58:38;3.33;;;2.03;;
3309;SDS011;1667;53.238;10.394;2023-07-31T02:03:38;1.80;;;1.50;;
3309;SDS011;1667;53.238;10.394;2023-07-31T02:08:39;5.07;;;1.57;;
3309;SDS011;1667;53.238;10.394;2023-07-31T02:13:38;2.03;;;1.53;;
3309;SDS011;1667;53.238;10.394;2023-07-31T02:18:36;1.57;;;1.47;;
3309;SDS011;1667;53.238;10.394;2023-07-31T02:23:36;5.07;;;1.60;;
3309;SDS011;1667;53.238;10.394;2023-07-31T02:34:00;2.60;;;2.17;;
3309;SDS011;1667;53.238;10.394;2023-07-31T02:39:00;3.90;;;1.80;;
3309;SDS011;1667;53.238;10.394;2023-07-31T02:43:59;1.80;;;1.70;;
3309;SDS011;1667;53.238;10.394;2023-07-31T02:48:57;3.30;;;2.20;;
3309;SDS011;1667;53.238;10.394;2023-07-31T02:53:56;3.53;;;2.23;;
3309;SDS011;1667;53.238;10.394;2023-07-31T02:58:56;2.93;;;2.33;;
3309;SDS011;1667;53.238;10.394;2023-07-31T03:03:55;2.70;;;2.50;;
3309;SDS011;1667;53.238;10.394;2023-07-31T03:08:54;2.80;;;2.60;;
3309;SDS011;1667;53.238;10.394;2023-07-31T03:13:53;2.97;;;2.20;;
3309;SDS011;1667;53.238;10.394;2023-07-31T03:18:53;3.30;;;3.00;;
3309;SDS011;1667;53.238;10.394;2023-07-31T03:23:52;6.57;;;3.30;;
3309;SDS011;1667;53.238;10.394;2023-07-31T03:28:51;2.70;;;2.37;;
3309;SDS011;1667;53.238;10.394;2023-07-31T03:33:49;3.90;;;2.70;;
3309;SDS011;1667;53.238;10.394;2023-07-31T03:38:49;2.83;;;2.47;;
3309;SDS011;1667;53.238;10.394;2023-07-31T03:43:50;4.30;;;2.70;;
3309;SDS011;1667;53.238;10.394;2023-07-31T03:48:49;3.67;;;2.93;;
3309;SDS011;1667;53.238;10.394;2023-07-31T03:53:50;3.07;;;2.87;;
3309;SDS011;1667;53.238;10.394;2023-07-31T03:58:48;3.70;;;2.87;;
3309;SDS011;1667;53.238;10.394;2023-07-31T04:03:46;2.90;;;2.70;;
3309;SDS011;1667;53.238;10.394;2023-07-31T04:08:45;3.50;;;3.20;;
3309;SDS011;1667;53.238;10.394;2023-07-31T04:13:45;3.47;;;3.17;;
3309;SDS011;1667;53.238;10.394;2023-07-31T04:24:33;2.80;;;2.60;;
3309;SDS011;1667;53.238;10.394;2023-07-31T04:29:33;2.23;;;2.13;;
3309;SDS011;1667;53.238;10.394;2023-07-31T04:34:32;3.30;;;2.93;;
3309;SDS011;1667;53.238;10.394;2023-07-31T04:39:30;4.33;;;3.50;;
3309;SDS011;1667;53.238;10.394;2023-07-31T04:44:29;3.13;;;2.83;;
3309;SDS011;1667;53.238;10.394;2023-07-31T04:49:29;2.87;;;2.67;;
3309;SDS011;1667;53.238;10.394;2023-07-31T05:00:29;2.40;;;2.20;;
3309;SDS011;1667;53.238;10.394;2023-07-31T05:05:29;2.33;;;2.23;;
3309;SDS011;1667;53.238;10.394;2023-07-31T05:10:27;3.20;;;2.90;;
3309;SDS011;1667;53.238;10.394;2023-07-31T05:15:26;2.57;;;2.37;;
3309;SDS011;1667;53.238;10.394;2023-07-31T05:20:25;2.60;;;2.40;;
3309;SDS011;1667;53.238;10.394;2023-07-31T05:25:25;2.67;;;2.47;;
3309;SDS011;1667;53.238;10.394;2023-07-31T05:30:23;2.03;;;1.93;;
3309;SDS011;1667;53.238;10.394;2023-07-31T05:35:22;2.50;;;2.23;;
3309;SDS011;1667;53.238;10.394;2023-07-31T05:40:21;7.40;;;2.50;;
3309;SDS011;1667;53.238;10.394;2023-07-31T05:45:21;2.00;;;1.90;;
3309;SDS011;1667;53.238;10.394;2023-07-31T05:50:20;2.50;;;2.30;;
3309;SDS011;1667;53.238;10.394;2023-07-31T05:55:18;2.00;;;1.90;;
3309;SDS011;1667;53.238;10.394;2023-07-31T06:00:17;3.50;;;2.00;;
3309;SDS011;1667;53.238;10.394;2023-07-31T06:05:18;2.10;;;1.90;;
3309;SDS011;1667;53.238;10.394;2023-07-31T06:10:17;1.50;;;1.40;;
3309;SDS011;1667;53.238;10.394;2023-07-31T06:15:16;1.63;;;1.53;;
3309;SDS011;1667;53.238;10.394;2023-07-31T06:20:32;2.07;;;1.97;;
3309;SDS011;1667;53.238;10.394;2023-07-31T06:25:31;1.80;;;1.70;;
3309;SDS011;1667;53.238;10.394;2023-07-31T06:30:29;1.60;;;1.50;;
3309;SDS011;1667;53.238;10.394;2023-07-31T06:35:28;1.47;;;1.37;;
3309;SDS011;1667;53.238;10.394;2023-07-31T06:40:27;1.37;;;1.33;;
3309;SDS011;1667;53.238;10.394;2023-07-31T06:45:26;2.60;;;1.40;;
3309;SDS011;1667;53.238;10.394;2023-07-31T06:50:25;1.10;;;1.10;;
3309;SDS011;1667;53.238;10.394;2023-07-31T06:55:25;1.10;;;1.10;;
3309;SDS011;1667;53.238;10.394;2023-07-31T07:00:25;1.50;;;1.40;;
3309;SDS011;1667;53.238;10.394;2023-07-31T07:05:25;1.40;;;1.30;;
3309;SDS011;1667;53.238;10.394;2023-07-31T07:10:24;0.90;;;0.90;;
3309;SDS011;1667;53.238;10.394;2023-07-31T07:15:24;1.10;;;1.00;;
3309;SDS011;1667;53.238;10.394;2023-07-31T07:20:22;1.20;;;1.10;;
3309;SDS011;1667;53.238;10.394;2023-07-31T07:25:21;1.10;;;1.10;;
3309;SDS011;1667;53.238;10.394;2023-07-31T07:30:19;1.20;;;1.10;;
3309;SDS011;1667;53.238;10.394;2023-07-31T07:35:19;1.90;;;0.90;;
3309;SDS011;1667;53.238;10.394;2023-07-31T07:40:17;1.10;;;1.07;;
3309;SDS011;1667;53.238;10.394;2023-07-31T07:45:16;1.17;;;1.13;;
3309;SDS011;1667;53.238;10.394;2023-07-31T07:50:15;0.87;;;0.87;;
3309;SDS011;1667;53.238;10.394;2023-07-31T07:55:17;0.90;;;0.90;;
3309;SDS011;1667;53.238;10.394;2023-07-31T08:00:16;1.10;;;1.10;;
3309;SDS011;1667;53.238;10.394;2023-07-31T08:05:15;1.13;;;0.90;;
3309;SDS011;1667;53.238;10.394;2023-07-31T08:10:14;0.90;;;0.83;;
3309;SDS011;1667;53.238;10.394;2023-07-31T08:15:14;0.77;;;0.77;;
3309;SDS011;1667;53.238;10.394;2023-07-31T08:20:13;0.80;;;0.80;;
3309;SDS011;1667;53.238;10.394;2023-07-31T08:25:11;0.80;;;0.80;;
3309;SDS011;1667;53.238;10.394;2023-07-31T08:30:11;0.73;;;0.73;;
3309;SDS011;1667;53.238;10.394;2023-07-31T08:35:11;0.87;;;0.80;;
3309;SDS011;1667;53.238;10.394;2023-07-31T08:40:10;0.70;;;0.70;;
3309;SDS011;1667;53.238;10.394;2023-07-31T08:45:11;0.60;;;0.60;;
3309;SDS011;1667;53.238;10.394;2023-07-31T08:50:14;0.70;;;0.70;;
3309;SDS011;1667;53.238;10.394;2023-07-31T08:55:14;0.73;;;0.60;;
3309;SDS011;1667;53.238;10.394;2023-07-31T09:00:14;0.90;;;0.60;;
3309;SDS011;1667;53.238;10.394;2023-07-31T09:05:14;0.60;;;0.60;;
3309;SDS011;1667;53.238;10.394;2023-07-31T09:10:13;0.70;;;0.70;;
3309;SDS011;1667;53.238;10.394;2023-07-31T09:15:12;0.60;;;0.60;;
3309;SDS011;1667;53.238;10.394;2023-07-31T09:20:32;0.77;;;0.77;;
3309;SDS011;1667;53.238;10.394;2023-07-31T09:25:31;0.70;;;0.70;;
3309;SDS011;1667;53.238;10.394;2023-07-31T09:30:30;0.80;;;0.80;;
3309;SDS011;1667;53.238;10.394;2023-07-31T09:35:30;0.80;;;0.80;;
3309;SDS011;1667;53.238;10.394;2023-07-31T09:40:32;2.07;;;1.80;;
3309;SDS011;1667;53.238;10.394;2023-07-31T09:45:33;2.23;;;1.73;;
3309;SDS011;1667;53.238;10.394;2023-07-31T09:50:37;4.00;;;1.83;;
3309;SDS011;1667;53.238;10.394;2023-07-31T09:55:39;7.50;;;3.20;;
3309;SDS011;1667;53.238;10.394;2023-07-31T10:00:39;8.60;;;2.97;;
3309;SDS011;1667;53.238;10.394;2023-07-31T10:05:37;6.60;;;3.73;;
3309;SDS011;1667;53.238;10.394;2023-07-31T10:10:39;6.67;;;4.27;;
3309;SDS011;1667;53.238;10.394;2023-07-31T10:15:40;6.97;;;4.30;;
3309;SDS011;1667;53.238;10.394;2023-07-31T10:20:40;5.43;;;3.20;;
3309;SDS011;1667;53.238;10.394;2023-07-31T10:25:41;6.87;;;4.73;;
3309;SDS011;1667;53.238;10.394;2023-07-31T10:30:40;9.07;;;4.07;;
3309;SDS011;1667;53.238;10.394;2023-07-31T10:35:40;5.37;;;3.80;;
3309;SDS011;1667;53.238;10.394;2023-07-31T10:40:40;12.07;;;4.93;;
3309;SDS011;1667;53.238;10.394;2023-07-31T10:50:57;5.53;;;3.53;;
3309;SDS011;1667;53.238;10.394;2023-07-31T10:55:59;3.73;;;3.20;;
3309;SDS011;1667;53.238;10.394;2023-07-31T11:00:59;6.30;;;3.90;;
3309;SDS011;1667;53.238;10.394;2023-07-31T11:06:00;6.50;;;4.00;;
3309;SDS011;1667;53.238;10.394;2023-07-31T11:11:08;7.00;;;3.30;;
3309;SDS011;1667;53.238;10.394;2023-07-31T11:16:07;3.83;;;3.30;;
3309;SDS011;1667;53.238;10.394;2023-07-31T11:21:06;11.77;;;3.63;;
3309;SDS011;1667;53.238;10.394;2023-07-31T11:26:05;7.60;;;3.30;;
3309;SDS011;1667;53.238;10.394;2023-07-31T11:31:05;4.53;;;2.80;;
3309;SDS011;1667;53.238;10.394;2023-07-31T11:36:15;5.50;;;2.70;;
3309;SDS011;1667;53.238;10.394;2023-07-31T11:41:15;4.53;;;2.60;;
3309;SDS011;1667;53.238;10.394;2023-07-31T11:46:15;2.50;;;2.10;;
3309;SDS011;1667;53.238;10.394;2023-07-31T11:51:15;2.37;;;1.97;;
3309;SDS011;1667;53.238;10.394;2023-07-31T11:56:16;2.60;;;2.27;;
3309;SDS011;1667;53.238;10.394;2023-07-31T12:01:18;2.80;;;1.90;;
3309;SDS011;1667;53.238;10.394;2023-07-31T12:06:18;2.33;;;1.60;;
3309;SDS011;1667;53.238;10.394;2023-07-31T12:11:18;2.40;;;1.40;;
3309;SDS011;1667;53.238;10.394;2023-07-31T12:16:18;1.67;;;1.57;;
3309;SDS011;1667;53.238;10.394;2023-07-31T12:21:16;1.30;;;1.30;;
3309;SDS011;1667;53.238;10.394;2023-07-31T12:26:16;1.60;;;1.50;;
3309;SDS011;1667;53.238;10.394;2023-07-31T12:31:15;1.50;;;1.40;;
3309;SDS011;1667;53.238;10.394;2023-07-31T12:36:17;2.47;;;1.80;;
3309;SDS011;1667;53.238;10.394;2023-07-31T12:41:18;1.40;;;1.30;;
3309;SDS011;1667;53.238;10.394;2023-07-31T12:46:18;1.50;;;1.40;;
3309;SDS011;1667;53.238;10.394;2023-07-31T12:51:16;1.50;;;1.40;;
3309;SDS011;1667;53.238;10.394;2023-07-31T12:56:15;1.83;;;1.20;;
3309;SDS011;1667;53.238;10.394;2023-07-31T13:01:14;1.50;;;1.40;;
3309;SDS011;1667;53.238;10.394;2023-07-31T13:06:14;2.13;;;1.43;;
3309;SDS011;1667;53.238;10.394;2023-07-31T13:11:13;1.40;;;1.30;;
3309;SDS011;1667;53.238;10.394;2023-07-31T13:16:12;1.53;;;1.43;;
3309;SDS011;1667;53.238;10.394;2023-07-31T13:21:10;1.20;;;1.20;;
3309;SDS011;1667;53.238;10.394;2023-07-31T13:26:12;1.77;;;1.67;;
3309;SDS011;1667;53.238;10.394;2023-07-31T13:31:10;1.50;;;1.40;;
3309;SDS011;1667;53.238;10.394;2023-07-31T13:42:17;1.30;;;1.10;;
3309;SDS011;1667;53.238;10.394;2023-07-31T13:47:15;1.43;;;1.33;;
3309;SDS011;1667;53.238;10.394;2023-07-31T13:52:14;1.20;;;1.10;;
3309;SDS011;1667;53.238;10.394;2023-07-31T13:57:25;0.97;;;0.93;;
3309;SDS011;1667;53.238;10.394;2023-07-31T14:02:25;0.97;;;0.90;;
3309;SDS011;1667;53.238;10.394;2023-07-31T14:07:23;1.37;;;1.27;;
3309;SDS011;1667;53.238;10.394;2023-07-31T14:12:22;1.27;;;1.23;;
3309;SDS011;1667;53.238;10.394;2023-07-31T14:17:38;1.53;;;1.30;;
3309;SDS011;1667;53.238;10.394;2023-07-31T14:22:37;1.37;;;1.30;;
3309;SDS011;1667;53.238;10.394;2023-07-31T14:27:36;1.30;;;1.20;;
3309;SDS011;1667;53.238;10.394;2023-07-31T14:32:35;1.50;;;1.40;;
3309;SDS011;1667;53.238;10.394;2023-07-31T14:43:35;1.97;;;1.77;;
3309;SDS011;1667;53.238;10.394;2023-07-31T14:48:34;1.90;;;1.80;;
3309;SDS011;1667;53.238;10.394;2023-07-31T14:53:32;3.17;;;1.60;;
3309;SDS011;1667;53.238;10.394;2023-07-31T14:58:31;1.57;;;1.47;;
3309;SDS011;1667;53.238;10.394;2023-07-31T15:03:30;1.53;;;1.43;;
3309;SDS011;1667;53.238;10.394;2023-07-31T15:08:32;1.70;;;1.60;;
3309;SDS011;1667;53.238;10.394;2023-07-31T15:13:31;1.87;;;1.77;;
3309;SDS011;1667;53.238;10.394;2023-07-31T15:18:31;2.97;;;2.20;;
3309;SDS011;1667;53.238;10.394;2023-07-31T15:23:29;2.33;;;2.17;;
3309;SDS011;1667;53.238;10.394;2023-07-31T15:28:27;2.03;;;1.93;;
3309;SDS011;1667;53.238;10.394;2023-07-31T15:33:26;1.90;;;1.80;;
3309;SDS011;1667;53.238;10.394;2023-07-31T15:38:26;2.20;;;2.10;;
3309;SDS011;1667;53.238;10.394;2023-07-31T15:43:25;2.27;;;2.17;;
3309;SDS011;1667;53.238;10.394;2023-07-31T15:48:24;1.93;;;1.80;;
3309;SDS011;1667;53.238;10.394;2023-07-31T15:53:23;2.57;;;2.37;;
3309;SDS011;1667;53.238;10.394;2023-07-31T16:04:11;2.97;;;1.90;;
3309;SDS011;1667;53.238;10.394;2023-07-31T16:09:10;2.80;;;2.00;;
3309;SDS011;1667;53.238;10.394;2023-07-31T16:19:34;2.70;;;1.90;;
3309;SDS011;1667;53.238;10.394;2023-07-31T16:24:33;2.40;;;2.10;;
3309;SDS011;1667;53.238;10.394;2023-07-31T16:29:36;3.57;;;2.40;;
3309;SDS011;1667;53.238;10.394;2023-07-31T16:34:36;2.00;;;1.80;;
3309;SDS011;1667;53.238;10.394;2023-07-31T16:39:35;2.67;;;2.43;;
3309;SDS011;1667;53.238;10.394;2023-07-31T16:44:33;2.20;;;2.00;;
3309;SDS011;1667;53.238;10.394;2023-07-31T16:49:31;4.07;;;2.43;;
3309;SDS011;1667;53.238;10.394;2023-07-31T16:54:31;1.77;;;1.67;;
3309;SDS011;1667;53.238;10.394;2023-07-31T16:59:31;2.53;;;2.30;;
3309;SDS011;1667;53.238;10.394;2023-07-31T17:04:29;2.30;;;2.10;;
3309;SDS011;1667;53.238;10.394;2023-07-31T17:09:28;2.60;;;2.40;;
3309;SDS011;1667;53.238;10.394;2023-07-31T17:14:27;3.60;;;2.60;;
3309;SDS011;1667;53.238;10.394;2023-07-31T17:19:26;2.97;;;2.60;;
3309;SDS011;1667;53.238;10.394;2023-07-31T17:30:14;3.10;;;2.90;;
3309;SDS011;1667;53.238;10.394;2023-07-31T17:35:14;3.63;;;3.33;;
3309;SDS011;1667;53.238;10.394;2023-07-31T17:40:12;3.20;;;3.00;;
3309;SDS011;1667;53.238;10.394;2023-07-31T17:45:11;3.40;;;3.10;;
3309;SDS011;1667;53.238;10.394;2023-07-31T17:50:11;3.10;;;2.90;;
3309;SDS011;1667;53.238;10.394;2023-07-31T17:55:09;4.30;;;3.37;;
3309;SDS011;1667;53.238;10.394;2023-07-31T18:00:08;6.13;;;2.70;;
3309;SDS011;1667;53.238;10.394;2023-07-31T18:05:08;3.30;;;3.10;;
3309;SDS011;1667;53.238;10.394;2023-07-31T18:10:08;3.30;;;3.10;;
3309;SDS011;1667;53.238;10.394;2023-07-31T18:15:08;3.57;;;3.30;;
3309;SDS011;1667;53.238;10.394;2023-07-31T18:27:03;4.00;;;3.60;;
3309;SDS011;1667;53.238;10.394;2023-07-31T18:32:02;3.73;;;3.43;;
3309;SDS011;1667;53.238;10.394;2023-07-31T18:37:01;6.10;;;3.97;;
3309;SDS011;1667;53.238;10.394;2023-07-31T18:42:00;4.23;;;3.83;;
3309;SDS011;1667;53.238;10.394;2023-07-31T18:53:36;4.80;;;4.40;;
3309;SDS011;1667;53.238;10.394;2023-07-31T18:58:35;3.80;;;3.50;;
3309;SDS011;1667;53.238;10.394;2023-07-31T19:03:35;5.17;;;4.30;;
3309;SDS011;1667;53.238;10.394;2023-07-31T19:08:34;3.70;;;3.40;;
3309;SDS011;1667;53.238;10.394;2023-07-31T19:13:33;4.80;;;4.40;;
3309;SDS011;1667;53.238;10.394;2023-07-31T19:18:33;8.43;;;4.40;;
3309;SDS011;1667;53.238;10.394;2023-07-31T19:23:31;4.27;;;3.97;;
3309;SDS011;1667;53.238;10.394;2023-07-31T19:28:30;5.37;;;4.87;;
3309;SDS011;1667;53.238;10.394;2023-07-31T19:33:28;4.50;;;4.10;;
3309;SDS011;1667;53.238;10.394;2023-07-31T19:38:28;4.87;;;4.47;;
3309;SDS011;1667;53.238;10.394;2023-07-31T19:43:27;4.40;;;4.00;;
3309;SDS011;1667;53.238;10.394;2023-07-31T19:54:57;5.10;;;4.60;;
3309;SDS011;1667;53.238;10.394;2023-07-31T19:59:55;4.20;;;3.70;;
3309;SDS011;1667;53.238;10.394;2023-07-31T20:04:54;3.60;;;3.30;;
3309;SDS011;1667;53.238;10.394;2023-07-31T20:09:53;3.30;;;3.10;;
3309;SDS011;1667;53.238;10.394;2023-07-31T20:14:54;2.80;;;2.60;;
3309;SDS011;1667;53.238;10.394;2023-07-31T20:19:53;2.17;;;1.90;;
3309;SDS011;1667;53.238;10.394;2023-07-31T20:24:51;1.93;;;1.83;;
3309;SDS011;1667;53.238;10.394;2023-07-31T20:29:50;1.77;;;1.67;;
3309;SDS011;1667;53.238;10.394;2023-07-31T20:34:49;1.90;;;1.80;;
3309;SDS011;1667;53.238;10.394;2023-07-31T20:39:48;2.17;;;1.90;;
3309;SDS011;1667;53.238;10.394;2023-07-31T20:44:46;1.80;;;1.67;;
3309;SDS011;1667;53.238;10.394;2023-07-31T20:50:02;1.63;;;1.53;;
3309;SDS011;1667;53.238;10.394;2023-07-31T20:55:01;1.60;;;1.50;;
3309;SDS011;1667;53.238;10.394;2023-07-31T21:00:00;2.23;;;1.93;;
3309;SDS011;1667;53.238;10.394;2023-07-31T21:04:58;1.50;;;1.40;;
3309;SDS011;1667;53.238;10.394;2023-07-31T21:10:16;1.77;;;1.67;;
3309;SDS011;1667;53.238;10.394;2023-07-31T21:15:15;3.50;;;2.20;;
3309;SDS011;1667;53.238;10.394;2023-07-31T21:20:13;2.60;;;1.73;;
3309;SDS011;1667;53.238;10.394;2023-07-31T21:31:09;2.10;;;1.90;;
3309;SDS011;1667;53.238;10.394;2023-07-31T21:36:08;2.80;;;2.10;;
3309;SDS011;1667;53.238;10.394;2023-07-31T21:41:07;1.90;;;1.80;;
3309;SDS011;1667;53.238;10.394;2023-07-31T21:46:06;3.43;;;2.30;;
3309;SDS011;1667;53.238;10.394;2023-07-31T21:51:06;2.30;;;1.87;;
3309;SDS011;1667;53.238;10.394;2023-07-31T21:56:04;3.50;;;2.40;;
3309;SDS011;1667;53.238;10.394;2023-07-31T22:01:03;2.47;;;2.27;;
3309;SDS011;1667;53.238;10.394;2023-07-31T22:06:03;3.63;;;1.90;;
3309;SDS011;1667;53.238;10.394;2023-07-31T22:11:03;2.40;;;1.97;;
3309;SDS011;1667;53.238;10.394;2023-07-31T22:16:01;2.40;;;1.70;;
3309;SDS011;1667;53.238;10.394;2023-07-31T22:21:00;1.50;;;1.40;;
3309;SDS011;1667;53.238;10.394;2023-07-31T22:25:59;2.10;;;1.60;;
3309;SDS011;1667;53.238;10.394;2023-07-31T22:30:59;2.10;;;1.90;;
3309;SDS011;1667;53.238;10.394;2023-07-31T22:35:57;1.90;;;1.80;;
3309;SDS011;1667;53.238;10.394;2023-07-31T22:40:56;2.57;;;1.80;;
3309;SDS011;1667;53.238;10.394;2023-07-31T22:45:54;2.53;;;1.80;;
3309;SDS011;1667;53.238;10.394;2023-07-31T22:50:54;1.70;;;1.60;;
3309;SDS011;1667;53.238;10.394;2023-07-31T22:55:52;2.10;;;1.50;;
3309;SDS011;1667;53.238;10.394;2023-07-31T23:00:59;1.47;;;1.37;;
3309;SDS011;1667;53.238;10.394;2023-07-31T23:06:00;4.53;;;2.03;;
3309;SDS011;1667;53.238;10.394;2023-07-31T23:10:59;2.33;;;2.13;;
3309;SDS011;1667;53.238;10.394;2023-07-31T23:15:59;1.93;;;1.83;;
3309;SDS011;1667;53.238;10.394;2023-07-31T23:20:57;1.53;;;1.43;;
3309;SDS011;1667;53.238;10.394;2023-07-31T23:25:57;5.60;;;2.27;;
3309;SDS011;1667;53.238;10.394;2023-07-31T23:31:00;1.90;;;1.80;;
3309;SDS011;1667;53.238;10.394;2023-07-31T23:36:07;1.40;;;1.30;;
3309;SDS011;1667;53.238;10.394;2023-07-31T23:41:06;1.50;;;1.40;;
3309;SDS011;1667;53.238;10.394;2023-07-31T23:46:05;1.30;;;1.20;;
3309;SDS011;1667;53.238;10.394;2023-07-31T23:51:04;1.63;;;1.53;;
3309;SDS011;1667;53.238;10.394;2023-07-31T23:56:04;2.17;;;1.93;;
